Time;durP1;ratioP1;P1;durP2;ratioP2;P2;SDS_P1;SDS_P2;PMS_P1;PMS_P2;Temp;Humidity;BMP_temperature;BMP_pressure;BME280_temperature;BME280_humidity;BME280_pressure;Samples;Min_cycle;Max_cycle;Signal;HPM_P1;HPM_P2
2022/05/24 00:00:27;;;;;;;3.03;1.30;;;;;;;-144.12;100.00;72078.50;4964208;28;20106;-66
2022/05/24 00:02:52;;;;;;;;;;;;;;;-144.12;100.00;72078.50;4972057;28;20392;-64
2022/05/24 00:05:18;;;;;;;2.72;1.30;;;;;;;-144.12;100.00;72078.50;4964646;28;20009;-63
2022/05/24 00:07:44;;;;;;;2.15;1.17;;;;;;;-144.12;100.00;72078.50;4966667;28;20038;-62
2022/05/24 00:10:13;;;;;;;1.25;0.80;;;;;;;-144.12;100.00;72078.50;4969307;28;20038;-63
2022/05/24 00:12:39;;;;;;;2.22;1.27;;;;;;;-144.12;100.00;72078.50;4969773;28;20050;-65
2022/05/24 00:15:30;;;;;;;1.27;1.17;;;;;;;-144.12;100.00;72078.50;4956085;28;20498;-63
2022/05/24 00:18:24;;;;;;;1.58;1.33;;;;;;;-144.12;100.00;72078.50;4966622;28;20114;-62
2022/05/24 00:20:55;;;;;;;3.45;1.88;;;;;;;-144.12;100.00;72078.50;4964826;28;20047;-63
2022/05/24 00:23:23;;;;;;;1.90;0.93;;;;;;;-144.12;100.00;72078.50;4965082;28;20038;-63
2022/05/24 00:25:55;;;;;;;1.40;1.00;;;;;;;-144.12;100.00;72078.50;4958650;28;20074;-66
2022/05/24 00:28:24;;;;;;;2.17;1.20;;;;;;;-144.12;100.00;72078.50;4967739;28;20077;-64
2022/05/24 00:30:49;;;;;;;1.30;1.20;;;;;;;-144.12;100.00;72078.50;4968482;28;20039;-63
2022/05/24 00:33:16;;;;;;;1.48;1.10;;;;;;;-144.12;100.00;72078.50;4963626;28;20387;-64
2022/05/24 00:35:43;;;;;;;5.90;1.48;;;;;;;-144.12;100.00;72078.50;4966952;28;20042;-64
2022/05/24 00:38:11;;;;;;;2.17;1.48;;;;;;;-144.12;100.00;72078.50;4969563;28;20118;-63
2022/05/24 00:40:51;;;;;;;0.95;0.93;;;;;;;-144.12;100.00;72078.50;4961064;28;20462;-63
2022/05/24 00:43:35;;;;;;;3.38;1.10;;;;;;;-144.12;100.00;72078.50;4968732;28;20043;-61
2022/05/24 00:46:11;;;;;;;1.67;1.30;;;;;;;-144.12;100.00;72078.50;4968317;28;20035;-63
2022/05/24 00:48:45;;;;;;;9.82;1.30;;;;;;;-144.12;100.00;72078.50;4964450;28;20401;-63
2022/05/24 00:51:12;;;;;;;1.67;1.00;;;;;;;-144.12;100.00;72078.50;4969550;28;20133;-63
2022/05/24 00:53:47;;;;;;;2.72;1.92;;;;;;;-144.12;100.00;72078.50;4968857;28;20034;-65
2022/05/24 00:56:14;;;;;;;2.25;1.25;;;;;;;-144.12;100.00;72078.50;4963872;28;20086;-63
2022/05/24 00:58:53;;;;;;;2.08;1.20;;;;;;;-144.12;100.00;72078.50;4980484;28;20030;-61
2022/05/24 01:01:38;;;;;;;1.83;1.38;;;;;;;-144.12;100.00;72078.50;4961638;28;20039;-61
2022/05/24 01:04:05;;;;;;;1.42;1.15;;;;;;;-144.12;100.00;72078.50;4963807;28;20084;-63
2022/05/24 01:06:30;;;;;;;1.60;1.38;;;;;;;-144.12;100.00;72078.50;4979155;28;20045;-64
2022/05/24 01:08:59;;;;;;;2.75;1.70;;;;;;;-144.12;100.00;72078.50;4964738;28;20039;-63
2022/05/24 01:11:27;;;;;;;1.75;1.50;;;;;;;-144.12;100.00;72078.50;4971821;28;20050;-64
2022/05/24 01:13:55;;;;;;;1.85;1.33;;;;;;;-144.12;100.00;72078.50;4972336;28;20038;-65
2022/05/24 01:16:20;;;;;;;3.58;1.70;;;;;;;-144.12;100.00;72078.50;4972421;28;20035;-64
2022/05/24 01:18:46;;;;;;;2.88;1.42;;;;;;;-144.12;100.00;72078.50;4967928;28;20042;-63
2022/05/24 01:24:11;;;;;;;5.28;1.90;;;;;;;-144.12;100.00;72078.50;4994752;28;20140;-63
2022/05/24 01:26:49;;;;;;;;;;;;;;;-144.12;100.00;72078.50;4992663;28;20081;-64
2022/05/24 01:29:17;;;;;;;2.38;1.50;;;;;;;-144.12;100.00;72078.50;4971793;28;19918;-63
2022/05/24 01:37:13;;;;;;;3.75;1.63;;;;;;;-144.12;100.00;72078.50;4986097;28;20041;-63
2022/05/24 01:39:42;;;;;;;2.80;1.70;;;;;;;-144.12;100.00;72078.50;4990223;28;20977;-64
2022/05/24 01:42:11;;;;;;;;;;;;;;;-144.12;100.00;72078.50;4990488;28;20121;-62
2022/05/24 01:45:01;;;;;;;4.75;1.58;;;;;;;-144.12;100.00;72078.50;4990862;28;19914;-63
2022/05/24 01:47:28;;;;;;;1.97;1.40;;;;;;;-144.12;100.00;72078.50;4989498;28;20035;-64
2022/05/24 01:50:01;;;;;;;2.45;1.58;;;;;;;-144.12;100.00;72078.50;4985606;28;20034;-64
2022/05/24 01:52:41;;;;;;;3.88;2.13;;;;;;;-144.12;100.00;72078.50;4990897;28;20409;-63
2022/05/24 01:55:11;;;;;;;3.10;1.83;;;;;;;-144.12;100.00;72078.50;4985834;28;20030;-63
2022/05/24 01:57:48;;;;;;;3.25;1.65;;;;;;;-144.12;100.00;72078.50;4989883;28;20581;-63
2022/05/24 02:00:15;;;;;;;2.40;1.77;;;;;;;-144.12;100.00;72078.50;4987105;28;20037;-64
2022/05/24 02:02:45;;;;;;;3.17;1.80;;;;;;;-144.12;100.00;72078.50;4988910;28;20030;-64
2022/05/24 02:05:12;;;;;;;4.38;2.00;;;;;;;-144.12;100.00;72078.50;4989822;28;20136;-63
2022/05/24 02:07:39;;;;;;;3.33;1.77;;;;;;;-144.12;100.00;72078.50;4991149;28;20041;-63
2022/05/24 02:10:05;;;;;;;2.97;1.48;;;;;;;-144.12;100.00;72078.50;4983756;28;20031;-64
2022/05/24 02:12:36;;;;;;;2.15;1.73;;;;;;;-144.12;100.00;72078.50;4985282;28;20038;-63
2022/05/24 02:15:15;;;;;;;3.05;2.33;;;;;;;-144.12;100.00;72078.50;4990097;28;20035;-62
2022/05/24 02:17:47;;;;;;;3.55;0.90;;;;;;;-144.12;100.00;72078.50;4969020;28;20046;-63
2022/05/24 02:20:16;;;;;;;2.05;1.20;;;;;;;-144.12;100.00;72078.50;4988070;28;20030;-63
2022/05/24 02:22:43;;;;;;;1.27;0.90;;;;;;;-144.12;100.00;72078.50;4990389;28;20046;-63
2022/05/24 02:25:22;;;;;;;2.03;1.20;;;;;;;-144.12;100.00;72078.50;4972429;28;20121;-64
2022/05/24 02:27:48;;;;;;;1.20;0.90;;;;;;;-144.12;100.00;72078.50;4984931;28;20053;-62
2022/05/24 02:30:21;;;;;;;1.92;1.30;;;;;;;-144.12;100.00;72078.50;4981399;28;20413;-62
2022/05/24 02:32:47;;;;;;;2.33;1.30;;;;;;;-144.12;100.00;72078.50;4983288;28;20047;-63
2022/05/24 02:35:13;;;;;;;1.13;0.95;;;;;;;-144.12;100.00;72078.50;4986138;28;20731;-62
2022/05/24 02:37:39;;;;;;;3.20;1.70;;;;;;;-144.12;100.00;72078.50;4981969;28;20068;-63
2022/05/24 02:42:50;;;;;;;1.95;1.20;;;;;;;-144.12;100.00;72078.50;4990477;28;20096;-64
2022/05/24 02:45:15;;;;;;;1.48;1.35;;;;;;;-144.12;100.00;72078.50;4982543;28;20034;-63
2022/05/24 02:47:41;;;;;;;2.10;1.45;;;;;;;-144.12;100.00;72078.50;4984383;28;20854;-63
2022/05/24 02:50:09;;;;;;;3.63;1.80;;;;;;;-144.12;100.00;72078.50;4976416;28;20614;-62
2022/05/24 02:52:36;;;;;;;2.13;1.48;;;;;;;-144.12;100.00;72078.50;4960151;28;20521;-63
2022/05/24 02:55:03;;;;;;;3.95;1.75;;;;;;;-144.12;100.00;72078.50;4983873;28;20472;-63
2022/05/24 02:57:32;;;;;;;2.75;1.75;;;;;;;-144.12;100.00;72078.50;4985462;28;20034;-63
2022/05/24 02:59:57;;;;;;;1.90;1.50;;;;;;;-144.12;100.00;72078.50;4983263;28;20077;-63
2022/05/24 03:02:23;;;;;;;3.40;1.42;;;;;;;-144.12;100.00;72078.50;4989568;28;20046;-63
2022/05/24 03:04:48;;;;;;;2.83;1.70;;;;;;;-144.12;100.00;72078.50;4989567;28;20077;-63
2022/05/24 03:09:58;;;;;;;3.70;1.77;;;;;;;-144.12;100.00;72078.50;4989638;28;20097;-63
2022/05/24 03:15:08;;;;;;;2.20;1.45;;;;;;;-144.12;100.00;72078.50;4989109;28;20034;-62
2022/05/24 03:17:34;;;;;;;5.07;1.98;;;;;;;-144.12;100.00;72078.50;4989280;28;20028;-62
2022/05/24 03:19:59;;;;;;;4.68;1.77;;;;;;;-144.12;100.00;72078.50;4986527;28;20489;-62
2022/05/24 03:22:25;;;;;;;3.40;1.92;;;;;;;-144.12;100.00;72078.50;4982854;28;20108;-62
2022/05/24 03:24:50;;;;;;;2.50;1.85;;;;;;;-144.12;100.00;72078.50;4988561;28;20041;-62
2022/05/24 03:27:17;;;;;;;3.05;1.58;;;;;;;-144.12;100.00;72078.50;4987442;28;20134;-62
2022/05/24 03:29:44;;;;;;;2.28;1.77;;;;;;;-144.12;100.00;72078.50;4983637;28;20035;-62
2022/05/24 03:32:12;;;;;;;3.88;2.22;;;;;;;-144.12;100.00;72078.50;4985002;28;20105;-62
2022/05/24 03:34:38;;;;;;;3.75;1.77;;;;;;;-144.12;100.00;72078.50;4987411;28;20042;-62
2022/05/24 03:37:05;;;;;;;4.90;2.13;;;;;;;-144.12;100.00;72078.50;4990173;28;20025;-62
2022/05/24 03:39:33;;;;;;;5.93;2.28;;;;;;;-144.12;100.00;72078.50;4977995;28;20022;-62
2022/05/24 03:41:58;;;;;;;3.03;1.60;;;;;;;-144.12;100.00;72078.50;4990212;28;20109;-62
2022/05/24 03:44:23;;;;;;;2.97;2.05;;;;;;;-144.12;100.00;72078.50;4990612;28;20516;-63
2022/05/24 03:46:52;;;;;;;4.30;1.85;;;;;;;-144.12;100.00;72078.50;4991312;28;20114;-62
2022/05/24 03:49:17;;;;;;;2.83;1.40;;;;;;;-144.12;100.00;72078.50;4983160;28;20041;-63
2022/05/24 03:51:42;;;;;;;4.13;1.70;;;;;;;-144.12;100.00;72078.50;4987518;28;20042;-63
2022/05/24 03:54:08;;;;;;;4.18;2.28;;;;;;;-144.12;100.00;72078.50;4987118;28;20455;-62
2022/05/24 03:56:34;;;;;;;3.25;2.05;;;;;;;-144.12;100.00;72078.50;4990030;28;20180;-63
2022/05/24 03:59:00;;;;;;;4.85;2.30;;;;;;;-144.12;100.00;72078.50;4989097;28;20019;-63
2022/05/24 04:01:26;;;;;;;5.05;2.00;;;;;;;-144.12;100.00;72078.50;4987755;28;20064;-62
2022/05/24 04:03:52;;;;;;;8.48;2.60;;;;;;;-144.12;100.00;72078.50;4988854;28;20022;-61
2022/05/24 04:06:17;;;;;;;3.10;1.67;;;;;;;-144.12;100.00;72078.50;4984138;28;20174;-60
2022/05/24 04:08:43;;;;;;;6.90;1.42;;;;;;;-144.12;100.00;72078.50;4982483;28;20031;-62
2022/05/24 04:11:10;;;;;;;2.38;1.30;;;;;;;-144.12;100.00;72078.50;4991546;28;20331;-61
2022/05/24 04:13:38;;;;;;;2.58;1.48;;;;;;;-144.12;100.00;72078.50;4989052;28;20049;-62
2022/05/24 04:16:04;;;;;;;3.60;1.67;;;;;;;-144.12;100.00;72078.50;4989886;28;20485;-61
2022/05/24 04:18:30;;;;;;;2.35;1.48;;;;;;;-144.12;100.00;72078.50;4977813;28;20026;-62
2022/05/24 04:20:56;;;;;;;3.53;1.73;;;;;;;-144.12;100.00;72078.50;4987670;28;20052;-61
2022/05/24 04:23:24;;;;;;;2.70;1.45;;;;;;;-144.12;100.00;72078.50;4989889;28;20436;-61
2022/05/24 04:25:53;;;;;;;4.47;1.55;;;;;;;-144.12;100.00;72078.50;4980315;28;20115;-62
2022/05/24 04:28:20;;;;;;;2.22;1.23;;;;;;;-144.12;100.00;72078.50;4987544;28;20604;-62
2022/05/24 04:30:48;;;;;;;3.15;1.70;;;;;;;-144.12;100.00;72078.50;4988766;28;20080;-61
2022/05/24 04:33:14;;;;;;;4.10;1.60;;;;;;;-144.12;100.00;72078.50;4986064;28;20043;-62
2022/05/24 04:35:41;;;;;;;3.42;2.35;;;;;;;-144.12;100.00;72078.50;4959502;28;20397;-61
2022/05/24 04:38:06;;;;;;;2.08;1.27;;;;;;;-144.12;100.00;72078.50;4987138;28;20028;-62
2022/05/24 04:43:16;;;;;;;1.80;1.35;;;;;;;-144.12;100.00;72078.50;4984823;28;20109;-61
2022/05/24 04:45:42;;;;;;;1.48;1.38;;;;;;;-144.12;100.00;72078.50;4993835;28;20026;-62
2022/05/24 04:48:07;;;;;;;3.63;1.08;;;;;;;-144.12;100.00;72078.50;4990667;28;20045;-62
2022/05/24 04:50:38;;;;;;;2.17;1.23;;;;;;;-144.12;100.00;72078.50;4973101;28;20039;-62
2022/05/24 04:53:03;;;;;;;3.17;1.30;;;;;;;-144.12;100.00;72078.50;4989179;28;20508;-62
2022/05/24 04:55:29;;;;;;;2.78;1.73;;;;;;;-144.12;100.00;72078.50;4992989;28;20424;-62
2022/05/24 04:57:56;;;;;;;1.90;1.58;;;;;;;-144.12;100.00;72078.50;4992916;28;20485;-62
2022/05/24 05:00:22;;;;;;;1.35;1.02;;;;;;;-144.12;100.00;72078.50;4982023;28;20042;-61
2022/05/24 05:02:47;;;;;;;1.88;1.20;;;;;;;-144.12;100.00;72078.50;4986482;28;20112;-61
2022/05/24 05:05:13;;;;;;;2.30;1.40;;;;;;;-144.12;100.00;72078.50;4992346;28;20113;-61
2022/05/24 05:07:40;;;;;;;2.75;1.38;;;;;;;-144.12;100.00;72078.50;4980945;28;20485;-62
2022/05/24 05:10:07;;;;;;;3.53;1.83;;;;;;;-144.12;100.00;72078.50;4984466;28;20035;-62
2022/05/24 05:12:32;;;;;;;2.30;1.20;;;;;;;-144.12;100.00;72078.50;4980361;28;20065;-61
2022/05/24 05:14:58;;;;;;;3.03;1.23;;;;;;;-144.12;100.00;72078.50;4972601;28;20392;-62
2022/05/24 05:17:23;;;;;;;3.65;1.92;;;;;;;-144.12;100.00;72078.50;4976423;28;20035;-62
2022/05/24 05:19:49;;;;;;;3.38;1.45;;;;;;;-144.12;100.00;72078.50;4983639;28;20034;-62
2022/05/24 05:22:16;;;;;;;2.40;1.15;;;;;;;-144.12;100.00;72078.50;4976896;28;20042;-62
2022/05/24 05:24:42;;;;;;;1.75;1.10;;;;;;;-144.12;100.00;72078.50;4980293;28;20037;-59
2022/05/24 05:27:08;;;;;;;1.58;1.00;;;;;;;-144.12;100.00;72078.50;4977901;28;20038;-62
2022/05/24 05:32:21;;;;;;;1.75;1.40;;;;;;;-144.12;100.00;72078.50;4969905;28;20046;-61
2022/05/24 05:34:51;;;;;;;6.55;1.13;;;;;;;-144.12;100.00;72078.50;4973549;28;20557;-61
2022/05/24 05:37:16;;;;;;;1.20;1.00;;;;;;;-144.12;100.00;72078.50;4974275;28;20126;-61
2022/05/24 05:39:43;;;;;;;1.40;1.15;;;;;;;-144.12;100.00;72078.50;4985308;28;20073;-60
2022/05/24 05:42:08;;;;;;;1.10;0.70;;;;;;;-144.12;100.00;72078.50;4993183;28;20038;-61
2022/05/24 05:44:34;;;;;;;1.30;0.82;;;;;;;-144.12;100.00;72078.50;4987355;28;20150;-62
2022/05/24 05:46:59;;;;;;;1.75;1.00;;;;;;;-144.12;100.00;72078.50;4992147;28;20420;-62
2022/05/24 05:49:25;;;;;;;3.58;1.10;;;;;;;-144.12;100.00;72078.50;4990469;28;20026;-61
2022/05/24 05:51:50;;;;;;;2.35;1.27;;;;;;;-144.12;100.00;72078.50;4981661;28;20034;-62
2022/05/24 05:54:16;;;;;;;1.45;0.80;;;;;;;-144.12;100.00;72078.50;4991039;28;20504;-61
2022/05/24 05:56:42;;;;;;;3.35;0.95;;;;;;;-144.12;100.00;72078.50;4992263;28;20030;-61
2022/05/24 05:59:07;;;;;;;1.85;0.60;;;;;;;-144.12;100.00;72078.50;4983059;28;20069;-61
2022/05/24 06:01:33;;;;;;;2.05;0.90;;;;;;;-144.12;100.00;72078.50;4991366;28;20054;-61
2022/05/24 06:03:59;;;;;;;0.80;0.63;;;;;;;-144.12;100.00;72078.50;4992249;28;20033;-62
2022/05/24 06:06:30;;;;;;;1.20;0.65;;;;;;;-144.12;100.00;72078.50;4984670;28;20481;-61
2022/05/24 06:08:56;;;;;;;2.97;1.00;;;;;;;-144.12;100.00;72078.50;4979184;28;20043;-61
2022/05/24 06:11:22;;;;;;;2.05;0.88;;;;;;;-144.12;100.00;72078.50;4988763;28;20034;-61
2022/05/24 06:13:48;;;;;;;4.28;1.05;;;;;;;-144.12;100.00;72078.50;4992079;28;20087;-61
2022/05/24 06:16:13;;;;;;;1.90;0.90;;;;;;;-144.12;100.00;72078.50;4991454;28;20401;-60
2022/05/24 06:18:39;;;;;;;1.67;1.10;;;;;;;-144.12;100.00;72078.50;4990874;28;20046;-62
2022/05/24 06:21:05;;;;;;;1.38;0.90;;;;;;;-144.12;100.00;72078.50;4989460;28;20037;-61
2022/05/24 06:23:33;;;;;;;2.30;1.15;;;;;;;-144.12;100.00;72078.50;4992443;28;20478;-62
2022/05/24 06:26:00;;;;;;;2.67;1.13;;;;;;;-144.12;100.00;72078.50;4991743;28;20034;-61
2022/05/24 06:28:28;;;;;;;7.32;1.25;;;;;;;-144.12;100.00;72078.50;4990008;28;20114;-60
2022/05/24 06:30:53;;;;;;;1.23;0.93;;;;;;;-144.12;100.00;72078.50;4990485;28;20195;-62
2022/05/24 06:33:19;;;;;;;1.45;0.88;;;;;;;-144.12;100.00;72078.50;4981616;28;20130;-62
2022/05/24 06:35:44;;;;;;;1.42;1.08;;;;;;;-144.12;100.00;72078.50;4991373;28;20106;-62
2022/05/24 06:38:10;;;;;;;2.15;1.02;;;;;;;-144.12;100.00;72078.50;4987904;28;20143;-62
2022/05/24 06:40:35;;;;;;;2.30;1.13;;;;;;;-144.12;100.00;72078.50;4990424;28;20022;-63
2022/05/24 06:43:02;;;;;;;2.03;0.95;;;;;;;-144.12;100.00;72078.50;4991680;28;20477;-62
2022/05/24 06:45:29;;;;;;;2.15;1.00;;;;;;;-144.12;100.00;72078.50;4991007;28;20393;-62
2022/05/24 06:47:54;;;;;;;1.45;0.80;;;;;;;-144.12;100.00;72078.50;4984742;28;20049;-62
2022/05/24 06:50:20;;;;;;;1.88;0.90;;;;;;;-144.12;100.00;72078.50;4991107;28;20039;-62
2022/05/24 06:52:47;;;;;;;1.08;0.50;;;;;;;-144.12;100.00;72078.50;4987408;28;20061;-62
2022/05/24 06:55:13;;;;;;;1.13;0.88;;;;;;;-144.12;100.00;72078.50;4988917;28;20046;-62
2022/05/24 06:57:39;;;;;;;1.40;0.88;;;;;;;-144.12;100.00;72078.50;4979689;28;20057;-62
2022/05/24 07:02:59;;;;;;;2.05;0.95;;;;;;;-144.12;100.00;72078.50;4986000;28;20061;-62
2022/05/24 07:05:25;;;;;;;1.90;1.27;;;;;;;-144.12;100.00;72078.50;4995774;28;20030;-61
2022/05/24 07:07:53;;;;;;;1.27;1.00;;;;;;;-144.12;100.00;72078.50;4967602;28;20023;-62
2022/05/24 07:10:20;;;;;;;1.98;0.90;;;;;;;-144.12;100.00;72078.50;4973093;28;20097;-62
2022/05/24 07:12:45;;;;;;;1.75;0.93;;;;;;;-144.12;100.00;72078.50;4977161;28;20477;-61
2022/05/24 07:15:11;;;;;;;1.33;0.90;;;;;;;-144.12;100.00;72078.50;4979109;28;20033;-62
2022/05/24 07:17:37;;;;;;;1.35;0.82;;;;;;;-144.12;100.00;72078.50;4979132;28;20522;-63
2022/05/24 07:20:04;;;;;;;1.75;0.95;;;;;;;-144.12;100.00;72078.50;4982720;28;20449;-63
2022/05/24 07:22:29;;;;;;;2.75;1.20;;;;;;;-144.12;100.00;72078.50;4993573;23;20780;-62
2022/05/24 07:24:55;;;;;;;1.67;1.27;;;;;;;-144.12;100.00;72078.50;5014320;28;20045;-63
2022/05/24 07:27:21;;;;;;;2.10;0.85;;;;;;;-144.12;100.00;72078.50;5017750;28;20633;-59
2022/05/24 07:29:48;;;;;;;3.63;1.10;;;;;;;-144.12;100.00;72078.50;5022130;28;20072;-64
2022/05/24 07:32:13;;;;;;;2.00;1.08;;;;;;;-144.12;100.00;72078.50;5023841;28;20510;-63
2022/05/24 07:34:39;;;;;;;1.70;1.20;;;;;;;-144.12;100.00;72078.50;5016104;28;20037;-60
2022/05/24 07:37:07;;;;;;;4.53;1.02;;;;;;;-144.12;100.00;72078.50;5025274;28;20401;-62
2022/05/24 07:39:32;;;;;;;1.33;0.85;;;;;;;-144.12;100.00;72078.50;5015134;28;20083;-61
2022/05/24 07:47:36;;;;;;;1.73;1.05;;;;;;;-144.12;100.00;72078.50;4989390;28;20488;-62
2022/05/24 07:50:03;;;;;;;1.48;1.10;;;;;;;-144.12;100.00;72078.50;5022462;28;20026;-65
2022/05/24 07:52:29;;;;;;;3.38;1.50;;;;;;;-144.12;100.00;72078.50;5028263;28;20499;-62
2022/05/24 07:54:54;;;;;;;3.03;1.35;;;;;;;-144.12;100.00;72078.50;5028163;28;20112;-62
2022/05/24 07:57:20;;;;;;;4.55;1.33;;;;;;;-144.12;100.00;72078.50;5008131;28;20025;-64
2022/05/24 07:59:47;;;;;;;1.45;1.00;;;;;;;-144.12;100.00;72078.50;5027260;28;20017;-63
2022/05/24 08:02:17;;;;;;;5.25;1.42;;;;;;;-144.12;100.00;72078.50;5017957;28;20427;-62
2022/05/24 08:04:43;;;;;;;1.95;1.27;;;;;;;-144.12;100.00;72078.50;5028326;28;20068;-62
2022/05/24 08:07:09;;;;;;;2.22;1.08;;;;;;;-144.12;100.00;72078.50;5029187;28;20057;-62
2022/05/24 08:09:35;;;;;;;1.42;0.90;;;;;;;-144.12;100.00;72078.50;5017377;28;20030;-63
2022/05/24 08:12:01;;;;;;;2.88;1.23;;;;;;;-144.12;100.00;72078.50;5024985;28;20427;-63
2022/05/24 08:14:26;;;;;;;3.13;1.10;;;;;;;-144.12;100.00;72078.50;5029702;28;20026;-63
2022/05/24 08:16:52;;;;;;;4.70;1.10;;;;;;;-144.12;100.00;72078.50;5028810;28;20034;-59
2022/05/24 08:19:17;;;;;;;1.10;0.88;;;;;;;-144.12;100.00;72078.50;5012786;28;20032;-63
2022/05/24 08:21:43;;;;;;;2.97;1.20;;;;;;;-144.12;100.00;72078.50;5030177;28;20272;-65
2022/05/24 08:24:08;;;;;;;3.38;1.50;;;;;;;-144.12;100.00;72078.50;5031415;28;20045;-62
2022/05/24 08:26:36;;;;;;;2.15;1.10;;;;;;;-144.12;100.00;72078.50;5033347;28;20072;-63
2022/05/24 08:29:02;;;;;;;2.50;1.42;;;;;;;-144.12;100.00;72078.50;5023083;28;20400;-63
2022/05/24 08:31:28;;;;;;;2.95;1.15;;;;;;;-144.12;100.00;72078.50;5031573;28;20044;-62
2022/05/24 08:33:53;;;;;;;2.15;1.10;;;;;;;-144.12;100.00;72078.50;5032776;28;20132;-63
2022/05/24 08:36:19;;;;;;;1.98;1.08;;;;;;;-144.12;100.00;72078.50;5019028;28;20466;-65
2022/05/24 08:38:44;;;;;;;1.63;1.08;;;;;;;-144.12;100.00;72078.50;5025793;28;20097;-63
2022/05/24 08:41:16;;;;;;;1.02;0.80;;;;;;;-144.12;100.00;72078.50;5032985;28;20069;-63
2022/05/24 08:43:52;;;;;;;2.92;1.00;;;;;;;-144.12;100.00;72078.50;5032778;28;20040;-63
2022/05/24 08:49:16;;;;;;;2.08;1.02;;;;;;;-144.12;100.00;72078.50;5032397;28;20072;-60
2022/05/24 08:51:56;;;;;;;1.65;1.00;;;;;;;-144.12;100.00;72078.50;5029536;28;20029;-61
2022/05/24 08:54:33;;;;;;;2.97;0.95;;;;;;;-144.12;100.00;72078.50;5030397;28;20041;-61
2022/05/24 08:57:03;;;;;;;1.70;1.00;;;;;;;-144.12;100.00;72078.50;5023364;28;20048;-60
2022/05/24 08:59:56;;;;;;;3.15;1.30;;;;;;;-144.12;100.00;72078.50;5030967;28;20068;-62
2022/05/24 09:02:22;;;;;;;1.92;1.08;;;;;;;-144.12;100.00;72078.50;5023464;28;20057;-62
2022/05/24 09:04:49;;;;;;;3.22;1.23;;;;;;;-144.12;100.00;72078.50;5022074;28;20181;-62
2022/05/24 09:07:19;;;;;;;1.95;1.05;;;;;;;-144.12;100.00;72078.50;5032517;28;20116;-63
2022/05/24 09:10:01;;;;;;;2.00;0.80;;;;;;;-144.12;100.00;72078.50;5032610;28;20099;-63
2022/05/24 09:12:47;;;;;;;2.63;1.17;;;;;;;-144.12;100.00;72078.50;5031019;28;20050;-63
2022/05/24 09:15:25;;;;;;;1.63;1.00;;;;;;;-144.12;100.00;72078.50;5031704;28;20099;-64
2022/05/24 09:18:05;;;;;;;2.92;1.30;;;;;;;-144.12;100.00;72078.50;5024699;28;20037;-63
2022/05/24 09:20:44;;;;;;;2.20;1.13;;;;;;;-144.12;100.00;72078.50;5030264;28;20029;-63
2022/05/24 09:23:18;;;;;;;2.08;1.00;;;;;;;-144.12;100.00;72078.50;5023450;28;20399;-62
2022/05/24 09:25:59;;;;;;;2.47;0.98;;;;;;;-144.12;100.00;72078.50;5030066;28;20038;-60
2022/05/24 09:28:52;;;;;;;1.90;0.85;;;;;;;-144.12;100.00;72078.50;5032351;28;20512;-64
2022/05/24 09:31:41;;;;;;;3.40;0.88;;;;;;;-144.12;100.00;72078.50;5032056;28;20041;-63
2022/05/24 09:34:19;;;;;;;1.30;1.05;;;;;;;-144.12;100.00;72078.50;5028012;28;20065;-63
2022/05/24 09:37:15;;;;;;;1.50;0.93;;;;;;;-144.12;100.00;72078.50;5030937;28;20484;-62
2022/05/24 09:39:55;;;;;;;2.35;0.88;;;;;;;-144.12;100.00;72078.50;5010298;28;20042;-61
2022/05/24 09:42:30;;;;;;;2.42;0.90;;;;;;;-144.12;100.00;72078.50;5019759;28;20407;-60
2022/05/24 09:45:17;;;;;;;1.65;0.88;;;;;;;-144.12;100.00;72078.50;5030737;28;20409;-63
2022/05/24 09:47:42;;;;;;;1.38;0.82;;;;;;;-144.12;100.00;72078.50;5031888;28;20399;-61
2022/05/24 09:50:26;;;;;;;2.28;1.17;;;;;;;-144.12;100.00;72078.50;5023151;28;20034;-61
2022/05/24 09:53:08;;;;;;;2.10;0.77;;;;;;;-144.12;100.00;72078.50;5025705;28;20381;-60
2022/05/24 09:55:36;;;;;;;1.50;0.80;;;;;;;-144.12;100.00;72078.50;5031136;28;20037;-60
2022/05/24 09:58:19;;;;;;;1.50;0.93;;;;;;;-144.12;100.00;72078.50;5024788;28;20030;-60
2022/05/24 10:00:49;;;;;;;1.25;0.90;;;;;;;-144.12;100.00;72078.50;5013372;28;20037;-62
2022/05/24 10:03:20;;;;;;;5.57;0.70;;;;;;;-144.12;100.00;72078.50;5030916;28;20771;-61
2022/05/24 10:06:04;;;;;;;1.33;0.88;;;;;;;-144.12;100.00;72078.50;5027594;28;20660;-64
2022/05/24 10:08:35;;;;;;;1.08;0.68;;;;;;;-144.12;100.00;72078.50;5012210;28;20029;-62
2022/05/24 10:11:03;;;;;;;2.00;0.90;;;;;;;-144.12;100.00;72078.50;5031531;28;20057;-62
2022/05/24 10:13:49;;;;;;;1.00;0.68;;;;;;;-144.12;100.00;72078.50;5030998;28;20026;-62
2022/05/24 10:16:27;;;;;;;1.60;0.80;;;;;;;-144.12;100.00;72078.50;5029279;28;20409;-62
2022/05/24 10:19:15;;;;;;;0.95;0.70;;;;;;;-144.12;100.00;72078.50;5025359;28;20304;-61
2022/05/24 10:21:44;;;;;;;3.17;0.90;;;;;;;-144.12;100.00;72078.50;5031273;28;20520;-63
2022/05/24 10:24:43;;;;;;;1.95;0.90;;;;;;;-144.12;100.00;72078.50;5031009;28;20037;-62
2022/05/24 10:27:33;;;;;;;0.98;0.52;;;;;;;-144.12;100.00;72078.50;5017552;28;20041;-64
2022/05/24 10:30:07;;;;;;;1.73;0.80;;;;;;;-144.12;100.00;72078.50;5012833;28;20077;-64
2022/05/24 10:39:53;;;;;;;1.45;0.90;;;;;;;-144.12;100.00;72078.50;5028409;28;20374;-61
2022/05/24 10:42:55;;;;;;;2.78;0.95;;;;;;;-144.12;100.00;72078.50;5018088;28;20045;-62
2022/05/24 10:45:49;;;;;;;2.60;1.27;;;;;;;-144.12;100.00;72078.50;5011968;28;20041;-61
2022/05/24 10:48:13;;;;;;;1.80;1.02;;;;;;;-144.12;100.00;72078.50;5030261;28;20033;-62
2022/05/24 10:50:48;;;;;;;2.70;1.42;;;;;;;-144.12;100.00;72078.50;5029769;28;20573;-60
2022/05/24 10:53:47;;;;;;;3.88;1.30;;;;;;;-144.12;100.00;72078.50;5030488;28;20784;-60
2022/05/24 10:56:37;;;;;;;2.45;1.50;;;;;;;-144.12;100.00;72078.50;4992156;28;20049;-62
2022/05/24 10:59:17;;;;;;;2.97;1.20;;;;;;;-144.12;100.00;72078.50;5029925;28;20112;-63
2022/05/24 11:01:51;;;;;;;4.75;1.40;;;;;;;-144.12;100.00;72078.50;5014741;28;20041;-62
2022/05/24 11:04:24;;;;;;;3.55;1.52;;;;;;;-144.12;100.00;72078.50;5021426;28;20120;-62
2022/05/24 11:07:13;;;;;;;3.00;1.50;;;;;;;-144.12;100.00;72078.50;5016765;28;20108;-61
2022/05/24 11:09:50;;;;;;;2.20;1.58;;;;;;;-144.12;100.00;72078.50;5002627;28;20217;-63
2022/05/24 11:12:22;;;;;;;2.97;1.25;;;;;;;-144.12;100.00;72078.50;5017494;28;20519;-62
2022/05/24 11:14:57;;;;;;;1.60;1.30;;;;;;;-144.12;100.00;72078.50;5021285;28;20034;-63
2022/05/24 11:17:23;;;;;;;2.35;1.45;;;;;;;-144.12;100.00;72078.50;4999144;28;20119;-64
2022/05/24 11:19:51;;;;;;;3.67;1.23;;;;;;;-144.12;100.00;72078.50;5013874;28;20037;-63
2022/05/24 11:22:21;;;;;;;4.53;1.55;;;;;;;-144.12;100.00;72078.50;5022438;28;20045;-62
2022/05/24 11:25:28;;;;;;;2.38;1.40;;;;;;;-144.12;100.00;72078.50;5018738;28;20038;-62
2022/05/24 11:27:56;;;;;;;1.77;1.10;;;;;;;-144.12;100.00;72078.50;4992780;28;20052;-64
2022/05/24 11:30:28;;;;;;;1.30;0.85;;;;;;;-144.12;100.00;72078.50;5007496;28;20018;-63
2022/05/24 11:33:03;;;;;;;1.45;0.77;;;;;;;-144.12;100.00;72078.50;5020371;28;20037;-63
2022/05/24 11:35:35;;;;;;;1.08;0.60;;;;;;;-144.12;100.00;72078.50;5028864;28;20037;-62
2022/05/24 11:38:16;;;;;;;3.85;0.63;;;;;;;-144.12;100.00;72078.50;5025480;28;20045;-63
2022/05/24 11:40:54;;;;;;;1.02;0.70;;;;;;;-144.12;100.00;72078.50;5027007;28;20033;-62
2022/05/24 11:43:34;;;;;;;1.00;0.60;;;;;;;-144.12;100.00;72078.50;5029147;28;20077;-64
2022/05/24 11:46:04;;;;;;;2.95;0.70;;;;;;;-144.12;100.00;72078.50;5028265;28;20041;-61
2022/05/24 11:48:41;;;;;;;0.90;0.40;;;;;;;-144.12;100.00;72078.50;5026477;28;20029;-60
2022/05/24 11:51:41;;;;;;;0.50;0.50;;;;;;;-144.12;100.00;72078.50;5012756;28;20412;-60
2022/05/24 11:54:16;;;;;;;2.47;0.80;;;;;;;-144.12;100.00;72078.50;4999067;28;20042;-61
2022/05/24 11:57:06;;;;;;;1.08;0.70;;;;;;;-144.12;100.00;72078.50;5009994;28;20507;-61
2022/05/24 11:59:52;;;;;;;0.47;0.47;;;;;;;-144.12;100.00;72078.50;5016902;28;20391;-63
2022/05/24 12:07:54;;;;;;;0.90;0.60;;;;;;;-144.12;100.00;72078.50;5014695;28;20367;-62
2022/05/24 12:10:20;;;;;;;0.77;0.50;;;;;;;-144.12;100.00;72078.50;5002230;28;20048;-63